METAR Data
IDs: Format: Raw Decoded Include TAF

Data at: 2057 UTC 18 Sep 2018

KDNV 182035Z AUTO 36005KT 10SM SCT070 SCT100 BKN120 32/18 A2989 RMK AO2 T03150183
KDNV 182015Z AUTO 31008KT 10SM SCT070 BKN110 33/19 A2989 RMK AO2 T03300187
KDNV 181955Z AUTO 25006KT 10SM SCT075 SCT110 34/17 A2989 RMK AO2 T03390174
KDNV 181935Z AUTO 23006KT 10SM SCT075 BKN110 34/17 A2990 RMK AO2 T03380173
KDNV 181915Z AUTO 25008KT 10SM SCT075 BKN100 BKN120 34/18 A2990 RMK AO2 T03370180
KDNV 181855Z AUTO 23009KT 10SM SCT110 33/18 A2990 RMK AO2 T03320179
KDNV 181835Z AUTO 24006KT 10SM SCT110 33/18 A2991 RMK AO2 T03330175
KDNV 181815Z AUTO 26006KT 10SM CLR 33/19 A2991 RMK AO2 T03310185
KDNV 181755Z AUTO 27007KT 10SM CLR 33/18 A2992 RMK AO2 T03280181 10336 20184
KDNV 181735Z AUTO 21007KT 200V260 10SM CLR 32/18 A2992 RMK AO2 T03230183
KDNV 181715Z AUTO 25005KT 10SM SCT065 SCT075 33/18 A2993 RMK AO2 T03270184
KDNV 181655Z AUTO 24006KT 10SM SCT065 SCT075 32/19 A2993 RMK AO2 T03180187
KDNV 181635Z AUTO 25005KT 10SM CLR 32/18 A2993 RMK AO2 T03200181
KDNV 181615Z AUTO 21005KT 10SM SCT065 32/19 A2993 RMK AO2 T03150185
KDNV 181555Z AUTO 24004KT 10SM SCT060 31/18 A2993 RMK AO2 T03110183
KDNV 181535Z AUTO 25005KT 10SM CLR 31/19 A2994 RMK AO2 T03080189
KDNV 181515Z AUTO 27003KT 10SM CLR 30/20 A2995 RMK AO2 T02990198
KDNV 181455Z AUTO 26003KT 10SM CLR 29/20 A2995 RMK AO2 T02850195
KDNV 181435Z AUTO 29003KT 10SM CLR 28/19 A2995 RMK AO2 T02790194
KDNV 181415Z AUTO 00000KT 10SM CLR 26/19 A2995 RMK AO2 T02610188
KDNV 181355Z AUTO 00000KT 10SM CLR 24/18 A2995 RMK AO2 T02440182
KDNV 181335Z AUTO 00000KT 10SM CLR 23/18 A2995 RMK AO2 T02340178
KDNV 181315Z AUTO 00000KT 10SM CLR 22/18 A2996 RMK AO2 T02220175
KDNV 181255Z AUTO 00000KT 10SM CLR 21/17 A2996 RMK AO2 T02110174
KDNV 181235Z AUTO 00000KT 10SM CLR 20/18 A2995 RMK AO2 T01960176
KDNV 181215Z AUTO 00000KT 10SM CLR 19/17 A2995 RMK AO2 T01850173
KDNV 181155Z AUTO 00000KT 10SM CLR 19/17 A2994 RMK AO2 T01860165 10220 20182
KDNV 181135Z AUTO 00000KT 10SM CLR 18/16 A2994 RMK AO2 T01840163
KDNV 181115Z AUTO 00000KT 10SM CLR 19/17 A2993 RMK AO2 T01880165
KDNV 181055Z AUTO 00000KT 10SM CLR 19/17 A2993 RMK AO2 T01940165
KDNV 181035Z AUTO 00000KT 10SM CLR 19/17 A2992 RMK AO2 T01910165
KDNV 181015Z AUTO 29003KT 10SM CLR 20/17 A2992 RMK AO2 T01960165
KDNV 180955Z AUTO 00000KT 10SM CLR 20/17 A2992 RMK AO2 T02000165
KDNV 180935Z AUTO 00000KT 10SM CLR 20/17 A2992 RMK AO2 T01970166
KDNV 180915Z AUTO 30005KT 10SM CLR 20/17 A2991 RMK AO2 T02010166
KDNV 180855Z AUTO 00000KT 10SM CLR 20/17 A2991 RMK AO2 T02000166
KDNV 180835Z AUTO 00000KT 10SM CLR 20/17 A2991 RMK AO2 T02000167
KDNV 180815Z AUTO 00000KT 10SM CLR 20/17 A2991 RMK AO2 T02020169
KDNV 180755Z AUTO 00000KT 10SM CLR 20/17 A2991 RMK AO2 T02030170
KDNV 180735Z AUTO 00000KT 10SM CLR 21/17 A2991 RMK AO2 T02100171
KDNV 180715Z AUTO 00000KT 10SM CLR 21/17 A2991 RMK AO2 T02080173
KDNV 180655Z AUTO 00000KT 10SM CLR 21/18 A2991 RMK AO2 T02100175
KDNV 180635Z AUTO 30003KT 10SM CLR 22/18 A2991 RMK AO2 T02170176
KDNV 180615Z AUTO 00000KT 10SM CLR 22/18 A2992 RMK AO2 T02160178
KDNV 180555Z AUTO 00000KT 10SM CLR 21/18 A2992 RMK AO2 T02090182 10277 20207 403330177
KDNV 180535Z AUTO 00000KT 10SM CLR 21/19 A2992 RMK AO2 T02120185
KDNV 180515Z AUTO 00000KT 10SM CLR 22/19 A2992 RMK AO2 T02240185
KDNV 180455Z AUTO 00000KT 10SM CLR 22/19 A2992 RMK AO2 T02180187
KDNV 180435Z AUTO 00000KT 10SM CLR 22/19 A2991 RMK AO2 T02180188
KDNV 180415Z AUTO 31005KT 10SM CLR 23/19 A2991 RMK AO2 T02290189
KDNV 180355Z AUTO 31006KT 10SM CLR 23/19 A2991 RMK AO2 T02310190
KDNV 180335Z AUTO 30006KT 10SM SCT090 SCT120 24/19 A2991 RMK AO2 T02430190
KDNV 180315Z AUTO 30006KT 10SM BKN090 OVC120 25/19 A2991 RMK AO2 T02540192
KDNV 180255Z AUTO 31006KT 10SM SCT080 BKN090 OVC110 26/19 A2990 RMK AO2 T02570193
KDNV 180235Z AUTO 00000KT 10SM BKN070 OVC090 25/22 A2990 RMK AO2 T02460217
KDNV 180215Z AUTO 00000KT 10SM OVC080 25/21 A2990 RMK AO2 T02510211
KDNV 180155Z AUTO 00000KT 10SM OVC080 25/21 A2990 RMK AO2 T02500211
KDNV 180135Z AUTO 21003KT 10SM SCT080 BKN110 25/21 A2990 RMK AO2 T02450209
KDNV 180115Z AUTO 21003KT 10SM OVC080 26/20 A2989 RMK AO2 T02570204
KDNV 180055Z AUTO 00000KT 10SM OVC080 25/20 A2989 RMK AO2 T02530204
KDNV 180035Z AUTO 00000KT 10SM OVC090 26/21 A2988 RMK AO2 T02610206
KDNV 180015Z AUTO 00000KT 7SM BKN090 OVC110 27/21 A2987 RMK AO2 T02690208
KDNV 172355Z AUTO 00000KT 10SM OVC090 28/20 A2987 RMK AO2 T02790204 10333 20279
KDNV 172335Z AUTO 22003KT 10SM SCT100 29/21 A2987 RMK AO2 T02850205
KDNV 172315Z AUTO 21004KT 10SM SCT095 31/20 A2987 RMK AO2 T03050195
KDNV 172255Z AUTO 23004KT 10SM SCT095 32/19 A2986 RMK AO2 T03190185
KDNV 172235Z AUTO 00000KT 10SM CLR 32/18 A2986 RMK AO2 T03210176
KDNV 172215Z AUTO 00000KT 10SM CLR 33/17 A2986 RMK AO2 T03250167
KDNV 172155Z AUTO 31004KT 10SM CLR 33/17 A2986 RMK AO2 T03280171
KDNV 172135Z AUTO 30004KT 10SM CLR 33/17 A2986 RMK AO2 T03290170
KDNV 172115Z AUTO 33004KT 10SM BKN070 33/17 A2986 RMK AO2 T03260173
KDNV 172055Z AUTO 30005KT 10SM OVC070 33/18 A2986 RMK AO2 T03330182
KDNV 172035Z AUTO 00000KT 10SM BKN080 33/17 A2986 RMK AO2 T03250173
KDNV 172015Z AUTO 00000KT 10SM SCT065 SCT085 32/17 A2987 RMK AO2 T03210170
KDNV 171955Z AUTO 03006KT 10SM BKN065 BKN085 32/18 A2987 RMK AO2 T03200180
KDNV 171935Z AUTO 05003KT 10SM SCT065 33/17 A2987 RMK AO2 T03250173
KDNV 171915Z AUTO 05003KT 10SM BKN065 BKN085 31/18 A2988 RMK AO2 T03080176
KDNV 171855Z AUTO 00000KT 10SM BKN065 32/18 A2989 RMK AO2 T03150178
KDNV 171835Z AUTO 00000KT 10SM BKN065 31/17 A2990 RMK AO2 T03050173
KDNV 171815Z AUTO 00000KT 10SM SCT065 BKN075 32/18 A2990 RMK AO2 T03160184
KDNV 171755Z AUTO 32005KT 10SM SCT055 BKN075 30/19 A2992 RMK AO2 T03010188 10315 20180
KDNV 171735Z AUTO 30003KT 10SM BKN055 BKN065 30/19 A2992 RMK AO2 T03010185
KDNV 171715Z AUTO 35004KT 10SM SCT049 BKN065 31/19 A2992 RMK AO2 T03090191
KDNV 171655Z AUTO 34005KT 10SM SCT049 31/20 A2993 RMK AO2 T03080198
KDNV 171635Z AUTO 00000KT 10SM SCT047 31/20 A2993 RMK AO2 T03050200
KDNV 171615Z AUTO 29004KT 10SM SCT038 SCT048 30/21 A2994 RMK AO2 T02950207
KDNV 171555Z AUTO 33004KT 10SM CLR 29/21 A2995 RMK AO2 T02890210
KDNV 171535Z AUTO 32007KT 10SM CLR 29/21 A2995 RMK AO2 T02900212
KDNV 171515Z AUTO 31005KT 10SM CLR 28/21 A2995 RMK AO2 T02790211
KDNV 171455Z AUTO 33005KT 10SM CLR 27/21 A2995 RMK AO2 T02720211
KDNV 171435Z AUTO 31003KT 10SM CLR 26/21 A2995 RMK AO2 T02630212
KDNV 171415Z AUTO 29004KT 10SM CLR 26/22 A2995 RMK AO2 T02560215
KDNV 171355Z AUTO 31005KT 10SM CLR 25/21 A2995 RMK AO2 T02490213
KDNV 171335Z AUTO 30005KT 10SM CLR 24/21 A2995 RMK AO2 T02410210
KDNV 171315Z AUTO 00000KT 10SM CLR 23/21 A2995 RMK AO2 T02310210
KDNV 171255Z AUTO 00000KT 10SM CLR 21/21 A2995 RMK AO2 T02120212
KDNV 171235Z AUTO 00000KT 10SM CLR 20/20 A2995 RMK AO2 T01980198
KDNV 171215Z AUTO 00000KT 10SM CLR 19/19 A2995 RMK AO2 T01860186
KDNV 171155Z AUTO 00000KT 10SM CLR 18/18 A2995 RMK AO2 T01800180 10213 20177
KDNV 171135Z AUTO 00000KT 10SM CLR 18/18 A2995 RMK AO2 T01800180
KDNV 171115Z AUTO 09003KT 7SM CLR 18/18 A2994 RMK AO2 T01770177
KDNV 171055Z AUTO 00000KT 7SM CLR 18/18 A2994 RMK AO2 T01820182
KDNV 171035Z AUTO 00000KT 7SM CLR 18/18 A2994 RMK AO2 T01810181
KDNV 171015Z AUTO 10003KT 7SM CLR 18/18 A2994 RMK AO2 T01800180
KDNV 170955Z AUTO 00000KT 10SM CLR 19/19 A2995 RMK AO2 T01860186
KDNV 170935Z AUTO 00000KT 10SM CLR 19/19 A2994 RMK AO2 T01850185
KDNV 170915Z AUTO 00000KT 10SM CLR 19/19 A2994 RMK AO2 T01890189